NCAR-RAP Real-Time Weather Data

Output produced by METARs form (14 October 2019  23:54 UTC)
found at http://weather.rap.ucar.edu/surface/
 
KSEA 142253Z 27003KT 10SM FEW025 SCT250 15/06 A3008 RMK AO2 SLP192 T01500056
KSEA 142153Z 27004KT 10SM FEW025 FEW250 16/06 A3008 RMK AO2 SLP191 T01560061
KSEA 142053Z 24005KT 10SM FEW020 FEW250 14/07 A3009 RMK AO2 SLP195 T01390067 58009
KSEA 141953Z 25004KT 10SM FEW015 FEW100 13/06 A3010 RMK AO2 SLP199 T01330056
KSEA 141853Z 25006KT 10SM FEW015 FEW100 SCT200 12/06 A3011 RMK AO2 SLP203 T01220061
KSEA 141753Z VRB04KT 10SM FEW014 FEW060 SCT200 11/07 A3012 RMK AO2 SLP206 T01110067 10111 20067 50004
KSEA 141653Z 16005KT 10SM FEW005 SCT050 BKN170 11/07 A3012 RMK AO2 SLP206 T01060067
KSEA 141553Z 16005KT 10SM FEW005 SCT050 BKN170 09/06 A3011 RMK AO2 SLP203 T00890061
KSEA 141453Z 17004KT 10SM FEW005 FEW024 SCT050 BKN170 08/06 A3011 RMK AO2 SLP202 T00780056 51009
KSEA 141353Z 15004KT 10SM SCT006 SCT024 BKN050 BKN140 08/06 A3010 RMK AO2 SLP201 T00830056
KSEA 141253Z 17004KT 10SM FEW005 SCT025 BKN055 07/05 A3008 RMK AO2 SLP195 T00670050
KSEA 141230Z 17004KT 10SM FEW005 SCT025 BKN055 07/05 A3008 RMK AO2 T00720050
KSEA 141153Z 16004KT 10SM FEW010 SCT024 SCT060 08/06 A3008 RMK AO2 SLP193 T00780056 10100 20072 53007
KSEA 141118Z 15005KT 10SM BKN023 08/06 A3007 RMK AO2 T00780056
KSEA 141053Z 16004KT 10SM FEW009 FEW060 08/06 A3007 RMK AO2 SLP188 T00780061
KSEA 140953Z 14004KT 10SM SCT007 SCT024 BKN060 08/06 A3007 RMK AO2 SLP187 T00830061
KSEA 140853Z 14004KT 10SM SCT007 BKN060 09/07 A3006 RMK AO2 SLP185 T00940067 51010
KSEA 140827Z 15004KT 10SM FEW007 SCT060 08/06 A3005 RMK AO2 T00830061
KSEA 140753Z 17005KT 10SM SCT060 09/07 A3005 RMK AO2 SLP181 T00890072 401440089
KSEA 140653Z 20004KT 10SM FEW070 09/07 A3004 RMK AO2 SLP179 T00940072
KSEA 140553Z 18005KT 10SM SCT070 09/07 A3003 RMK AO2 SLP175 T00890067 10139 20089 52009
KSEA 140453Z 00000KT 10SM FEW055 BKN075 11/06 A3002 RMK AO2 SLP173 T01110061
KSEA 140353Z 00000KT 10SM FEW065 SCT085 11/06 A3000 RMK AO2 SLP166 T01110061
KSEA 140253Z VRB03KT 10SM FEW065 BKN085 13/06 A3000 RMK AO2 SLP164 T01330061 53008
KSEA 140153Z 13004KT 10SM BKN070 BKN085 13/06 A2998 RMK AO2 SLP159 T01280056
KSEA 140053Z 14003KT 10SM FEW040 OVC080 13/06 A2998 RMK AO2 SLP158 T01330056
KSEA 132353Z 19004KT 10SM SCT032 BKN080 13/06 A2998 RMK AO2 SLP157 T01330056 10144 20117 53003
KSEA 132253Z 21005KT 10SM FEW025 BKN035 BKN080 14/07 A2998 RMK AO2 SLP157 T01440067
KSEA 132153Z 00000KT 10SM FEW027 BKN060 BKN080 14/07 A2996 RMK AO2 SLP153 T01390072
KSEA 132053Z 00000KT 10SM FEW017 OVC075 13/06 A2997 RMK AO2 SLP153 T01330061 50001
KSEA 131953Z 26004KT 10SM SCT017 OVC070 13/07 A2997 RMK AO2 SLP155 T01330067
KSEA 131853Z VRB03KT 10SM SCT012 BKN075 12/07 A2996 RMK AO2 SLP152 T01220072
KSEA 131753Z 26004KT 10SM BKN012 OVC075 12/08 A2996 RMK AO2 SLP152 T01170083 10117 20100 53003
KSEA 131702Z 27003KT 9SM BKN012 OVC070 11/08 A2996 RMK AO2 T01110078
KSEA 131653Z 00000KT 9SM FEW012 BKN055 OVC070 11/08 A2995 RMK AO2 SLP150 T01110078
KSEA 131553Z 00000KT 10SM FEW020 SCT055 OVC070 11/08 A2995 RMK AO2 SLP149 T01060078
KSEA 131453Z 35003KT 10SM FEW020 SCT055 OVC070 10/07 A2995 RMK AO2 SLP149 T01000072 53004
KSEA 131353Z 32004KT 10SM FEW055 OVC075 10/07 A2995 RMK AO2 SLP147 T01000072
KSEA 131253Z 00000KT 10SM OVC075 10/07 A2994 RMK AO2 SLP145 T01000072
KSEA 131153Z 31003KT 10SM OVC070 10/07 A2994 RMK AO2 SLP144 T01000072 10111 20100 53002
KSEA 131053Z 00000KT 10SM OVC075 11/07 A2992 RMK AO2 SLP139 T01060067
KSEA 130953Z 00000KT 10SM OVC080 11/07 A2993 RMK AO2 SLP143 T01060067
KSEA 130853Z 01004KT 10SM OVC085 11/07 A2993 RMK AO2 SLP143 T01060067 56002
KSEA 130753Z 34005KT 10SM OVC100 11/07 A2994 RMK AO2 SLP144 T01060067 401500078
KSEA 130653Z 01007KT 10SM OVC080 11/07 A2993 RMK AO2 SLP140 T01110072
KSEA 130553Z 34004KT 10SM OVC080 11/08 A2994 RMK AO2 RAB28E47 SLP145 P0000 60000 T01060078 10139 20106 56002
KSEA 130453Z 34004KT 10SM FEW060 OVC110 11/06 A2994 RMK AO2 SLP145 T01110061
KSEA 130353Z 02004KT 10SM BKN100 OVC140 12/06 A2994 RMK AO2 SLP145 T01170061
KSEA 130253Z 30003KT 10SM FEW050 BKN100 OVC140 12/06 A2995 RMK AO2 SLP148 T01220061 51002
KSEA 130153Z 32004KT 10SM FEW050 BKN100 OVC140 12/06 A2994 RMK AO2 SLP147 T01220061
KSEA 130053Z 00000KT 10SM FEW050 BKN100 BKN140 13/06 A2995 RMK AO2 SLP147 T01280056